Time;durP1;ratioP1;P1;durP2;ratioP2;P2;SDS_P1;SDS_P2;PMS_P1;PMS_P2;Temp;Humidity;BMP_temperature;BMP_pressure;BME280_temperature;BME280_humidity;BME280_pressure;Samples;Min_cycle;Max_cycle;Signal;HPM_P1;HPM_P2
2023/03/09 00:00:51;;;;;;;15.18;6.40;;;0.90;99.90;;;;;;5040057;28;20065;-75
2023/03/09 00:03:17;;;;;;;18.00;6.63;;;0.90;99.90;;;;;;5038592;28;20430;-74
2023/03/09 00:06:03;;;;;;;15.43;5.90;;;1.00;99.90;;;;;;5058059;28;20027;-75
2023/03/09 00:08:28;;;;;;;16.55;6.78;;;0.90;99.90;;;;;;5039972;28;20037;-75
2023/03/09 00:10:57;;;;;;;18.55;7.07;;;0.90;99.90;;;;;;5057434;28;20029;-75
2023/03/09 00:13:23;;;;;;;17.38;6.53;;;0.90;99.90;;;;;;5057920;28;20043;-75
2023/03/09 00:15:52;;;;;;;17.15;6.63;;;0.90;99.90;;;;;;5039904;28;20029;-74
2023/03/09 00:18:19;;;;;;;21.25;6.93;;;0.80;99.90;;;;;;5057356;28;20479;-74
2023/03/09 00:20:48;;;;;;;17.45;5.97;;;0.80;99.90;;;;;;5039889;28;20025;-74
2023/03/09 00:23:17;;;;;;;16.48;6.47;;;0.90;99.90;;;;;;5056992;28;20032;-74
2023/03/09 00:25:44;;;;;;;16.00;5.95;;;0.80;99.90;;;;;;5057194;28;20044;-74
2023/03/09 00:28:09;;;;;;;16.20;6.20;;;0.80;99.90;;;;;;5039633;28;20503;-74
2023/03/09 00:30:35;;;;;;;17.25;6.90;;;0.90;99.90;;;;;;5040178;28;20013;-74
2023/03/09 00:33:01;;;;;;;16.50;5.38;;;0.90;99.90;;;;;;5039572;28;20017;-76
2023/03/09 00:35:27;;;;;;;18.17;5.65;;;0.90;99.90;;;;;;5039238;28;20131;-74
2023/03/09 00:37:53;;;;;;;16.98;6.10;;;0.90;99.90;;;;;;5057818;28;20029;-74
2023/03/09 00:40:19;;;;;;;15.07;5.40;;;0.80;99.90;;;;;;5039042;28;20035;-74
2023/03/09 00:42:45;;;;;;;16.13;6.68;;;0.90;99.90;;;;;;5039341;28;20036;-74
2023/03/09 00:45:12;;;;;;;17.55;5.88;;;0.80;99.90;;;;;;5039531;28;20025;-74
2023/03/09 00:47:38;;;;;;;14.07;6.15;;;0.90;99.90;;;;;;5038774;28;20017;-74
2023/03/09 00:50:06;;;;;;;15.88;5.93;;;0.80;99.90;;;;;;5056797;28;20112;-74
2023/03/09 00:52:32;;;;;;;16.15;6.00;;;0.80;99.90;;;;;;5056391;28;20491;-75
2023/03/09 00:54:58;;;;;;;18.23;5.45;;;0.90;99.90;;;;;;5056653;28;20053;-74
2023/03/09 00:57:25;;;;;;;16.77;6.38;;;0.80;99.90;;;;;;5056625;28;20032;-74
2023/03/09 00:59:51;;;;;;;16.10;5.95;;;1.40;99.90;;;;;;5038830;28;20025;-74
2023/03/09 01:02:18;;;;;;;18.33;5.63;;;0.90;99.90;;;;;;5038716;28;20083;-74
2023/03/09 01:04:44;;;;;;;14.38;5.03;;;0.90;99.90;;;;;;5038572;28;20036;-74
2023/03/09 01:07:09;;;;;;;13.30;5.50;;;0.90;99.90;;;;;;5038515;28;20025;-74
2023/03/09 01:09:37;;;;;;;13.02;5.07;;;0.90;99.90;;;;;;5038798;28;20021;-74
2023/03/09 01:12:03;;;;;;;14.38;6.07;;;1.00;99.90;;;;;;5056421;28;20056;-74
2023/03/09 01:14:28;;;;;;;14.63;5.10;;;1.00;99.90;;;;;;5037801;28;20032;-74
2023/03/09 01:16:54;;;;;;;12.50;4.97;;;1.00;99.90;;;;;;5037826;28;20119;-74
2023/03/09 01:19:20;;;;;;;14.35;5.20;;;1.00;99.90;;;;;;5038566;28;20025;-74
2023/03/09 01:21:45;;;;;;;14.73;4.78;;;1.00;99.90;;;;;;5038450;28;20061;-74
2023/03/09 01:24:11;;;;;;;13.00;5.43;;;1.00;99.90;;;;;;5057169;28;20510;-74
2023/03/09 01:26:36;;;;;;;12.02;4.57;;;1.00;99.90;;;;;;5056953;28;20032;-75
2023/03/09 01:29:05;;;;;;;15.32;5.13;;;1.00;99.90;;;;;;5039198;28;20361;-74
2023/03/09 01:31:30;;;;;;;11.82;4.05;;;1.00;99.90;;;;;;5038689;28;20017;-74
2023/03/09 01:33:56;;;;;;;12.43;4.65;;;1.00;99.90;;;;;;5056957;28;20059;-74
2023/03/09 01:36:22;;;;;;;12.73;4.85;;;1.00;99.90;;;;;;5037930;28;20074;-74
2023/03/09 01:38:48;;;;;;;15.68;4.85;;;1.00;99.90;;;;;;5038565;28;20099;-74
2023/03/09 01:41:15;;;;;;;12.82;4.35;;;1.10;99.90;;;;;;5038650;28;20025;-74
2023/03/09 01:43:47;;;;;;;9.85;4.00;;;1.00;99.90;;;;;;5038195;28;20041;-74
2023/03/09 01:46:25;;;;;;;11.95;4.35;;;1.00;99.90;;;;;;5037877;28;20539;-74
2023/03/09 01:48:53;;;;;;;11.07;4.45;;;1.00;99.90;;;;;;5056160;28;20029;-74
2023/03/09 01:51:20;;;;;;;13.90;4.20;;;1.00;99.90;;;;;;5055883;28;20053;-75
2023/03/09 01:53:47;;;;;;;13.38;3.90;;;1.00;99.90;;;;;;5037841;28;20009;-74
2023/03/09 01:56:17;;;;;;;12.32;4.55;;;1.00;99.90;;;;;;5037676;28;20021;-74
2023/03/09 01:58:44;;;;;;;12.13;4.63;;;1.00;99.90;;;;;;5037596;28;20029;-74
2023/03/09 02:01:10;;;;;;;12.75;4.85;;;1.80;99.90;;;;;;5055220;28;20025;-74
2023/03/09 02:03:39;;;;;;;10.40;3.80;;;1.00;99.90;;;;;;5055431;28;20024;-74
2023/03/09 02:06:18;;;;;;;15.25;4.88;;;1.00;99.90;;;;;;5037042;28;20021;-75
2023/03/09 02:09:21;;;;;;;13.15;4.43;;;0.90;99.90;;;;;;5055500;28;20025;-75
2023/03/09 02:11:50;;;;;;;12.90;4.55;;;1.00;99.90;;;;;;5037844;28;20056;-75
2023/03/09 02:14:16;;;;;;;;;;;0.90;99.90;;;;;;5038057;28;20021;-75
2023/03/09 02:16:41;;;;;;;15.13;5.38;;;1.00;99.90;;;;;;5037456;28;19998;-75
2023/03/09 02:19:15;;;;;;;14.25;5.15;;;1.00;99.90;;;;;;5037938;28;20095;-75
2023/03/09 02:21:49;;;;;;;20.05;5.38;;;1.00;99.90;;;;;;5038014;28;20036;-74
2023/03/09 02:24:23;;;;;;;12.98;5.28;;;1.10;99.90;;;;;;5036868;28;20036;-75
2023/03/09 02:27:21;;;;;;;13.63;5.05;;;1.00;99.90;;;;;;5036730;28;20024;-74
2023/03/09 02:29:48;;;;;;;14.77;5.53;;;1.10;99.90;;;;;;5036636;28;20048;-75
2023/03/09 02:32:14;;;;;;;14.13;5.45;;;1.00;99.90;;;;;;5055402;28;20294;-75
2023/03/09 02:34:40;;;;;;;15.30;5.25;;;1.10;99.90;;;;;;5037224;28;20426;-75
2023/03/09 02:37:29;;;;;;;15.60;5.90;;;1.10;99.90;;;;;;5055189;28;20079;-75
2023/03/09 02:40:10;;;;;;;13.00;5.55;;;1.10;99.90;;;;;;5054941;28;20063;-75
2023/03/09 02:42:39;;;;;;;13.85;5.07;;;1.10;99.90;;;;;;5037437;28;20079;-75
2023/03/09 02:45:06;;;;;;;15.07;6.00;;;1.00;99.90;;;;;;5036838;28;20033;-75
2023/03/09 02:47:32;;;;;;;15.02;5.70;;;1.10;99.90;;;;;;5037464;28;20070;-75
2023/03/09 02:50:01;;;;;;;16.15;5.38;;;1.00;99.90;;;;;;5037500;28;20017;-75
2023/03/09 02:52:29;;;;;;;14.80;6.10;;;2.80;99.90;;;;;;5037499;28;20021;-74
2023/03/09 02:54:55;;;;;;;13.40;5.70;;;1.00;99.90;;;;;;5037115;28;20159;-75
2023/03/09 02:57:20;;;;;;;16.00;6.15;;;1.10;99.90;;;;;;5055495;28;20057;-75
2023/03/09 02:59:49;;;;;;;15.35;5.13;;;1.00;99.90;;;;;;5037111;28;20036;-75
2023/03/09 03:02:14;;;;;;;12.88;5.10;;;1.00;99.90;;;;;;5036840;28;20024;-75
2023/03/09 03:04:40;;;;;;;14.18;5.80;;;1.00;99.90;;;;;;5037511;28;20035;-75
2023/03/09 03:07:06;;;;;;;13.63;5.75;;;1.10;99.90;;;;;;5055024;28;20063;-74
2023/03/09 03:09:31;;;;;;;12.43;4.28;;;1.10;99.90;;;;;;5055905;28;20051;-75
2023/03/09 03:11:57;;;;;;;14.88;5.20;;;1.10;99.90;;;;;;5036873;28;20067;-75
2023/03/09 03:14:23;;;;;;;14.98;5.40;;;1.10;99.90;;;;;;5039730;28;20025;-75
2023/03/09 03:16:49;;;;;;;14.68;4.70;;;1.00;99.90;;;;;;5056360;28;20538;-75
2023/03/09 03:19:15;;;;;;;13.85;5.18;;;0.90;99.90;;;;;;5037021;28;20025;-75
2023/03/09 03:21:40;;;;;;;12.93;4.60;;;1.00;99.90;;;;;;5055642;28;20029;-75
2023/03/09 03:24:06;;;;;;;13.73;4.55;;;1.00;99.90;;;;;;5037052;28;20064;-75
2023/03/09 03:26:40;;;;;;;12.00;3.78;;;1.00;99.90;;;;;;5036444;28;20021;-75
2023/03/09 03:29:06;;;;;;;12.65;4.65;;;1.00;99.90;;;;;;5037006;28;20017;-75
2023/03/09 03:31:31;;;;;;;14.57;4.40;;;1.00;99.90;;;;;;5037108;28;20029;-75
2023/03/09 03:34:00;;;;;;;13.60;4.68;;;1.00;99.90;;;;;;5036871;28;20027;-75
2023/03/09 03:36:29;;;;;;;;;;;1.00;99.90;;;;;;5037309;28;20025;-75
2023/03/09 03:38:58;;;;;;;11.88;4.35;;;1.00;99.90;;;;;;5039206;28;19916;-75
2023/03/09 03:41:23;;;;;;;9.05;2.83;;;2.00;99.90;;;;;;5059198;28;20418;-75
2023/03/09 03:43:55;;;;;;;11.70;4.13;;;1.00;99.90;;;;;;5040441;28;20021;-75
2023/03/09 03:46:21;;;;;;;12.25;4.68;;;1.00;99.90;;;;;;5040154;28;20021;-74
2023/03/09 03:48:49;;;;;;;11.27;4.63;;;1.00;99.90;;;;;;5040570;28;20365;-75
2023/03/09 03:51:14;;;;;;;10.37;4.37;;;1.00;99.90;;;;;;5041619;28;20063;-74
2023/03/09 03:53:41;;;;;;;13.55;4.30;;;1.00;99.90;;;;;;5040840;28;20025;-74
2023/03/09 03:56:06;;;;;;;12.27;4.57;;;1.00;99.90;;;;;;5057585;28;20049;-74
2023/03/09 03:58:35;;;;;;;16.05;5.00;;;1.00;99.90;;;;;;5039997;28;20021;-74
2023/03/09 04:01:03;;;;;;;12.30;4.50;;;1.00;99.90;;;;;;5040173;28;20023;-74
2023/03/09 04:03:29;;;;;;;13.80;4.93;;;1.00;99.90;;;;;;5058473;28;20021;-74
2023/03/09 04:06:02;;;;;;;14.05;4.80;;;1.00;99.90;;;;;;5057958;28;20108;-74
2023/03/09 04:08:28;;;;;;;13.63;4.63;;;1.00;99.90;;;;;;5057482;28;20027;-74
2023/03/09 04:10:54;;;;;;;13.80;4.90;;;1.00;99.90;;;;;;5057251;28;20021;-74
2023/03/09 04:13:19;;;;;;;14.40;5.13;;;1.00;99.90;;;;;;5039471;28;20021;-74
2023/03/09 04:15:45;;;;;;;14.68;5.22;;;1.00;99.90;;;;;;5039174;28;20499;-74
2023/03/09 04:18:11;;;;;;;12.85;4.95;;;1.00;99.90;;;;;;5039590;28;20025;-74
2023/03/09 04:20:39;;;;;;;17.30;5.43;;;1.10;99.90;;;;;;5039708;28;20025;-74
2023/03/09 04:23:05;;;;;;;14.73;5.57;;;1.00;99.90;;;;;;5039889;28;20495;-74
2023/03/09 04:25:30;;;;;;;13.98;5.28;;;1.00;99.90;;;;;;5038437;28;20125;-75
2023/03/09 04:27:59;;;;;;;15.18;5.07;;;1.10;99.90;;;;;;5057749;28;20048;-74
2023/03/09 04:30:25;;;;;;;14.23;5.60;;;1.00;99.90;;;;;;5040512;28;20490;-74
2023/03/09 04:32:50;;;;;;;18.40;6.53;;;1.00;99.90;;;;;;5039383;28;20025;-74
2023/03/09 04:35:17;;;;;;;15.82;5.75;;;1.00;99.90;;;;;;5057000;28;20025;-74
2023/03/09 04:37:46;;;;;;;16.60;5.95;;;1.10;99.90;;;;;;5039471;28;20021;-74
2023/03/09 04:40:12;;;;;;;15.30;5.80;;;1.00;99.90;;;;;;5039324;28;20492;-74
2023/03/09 04:42:38;;;;;;;18.58;6.28;;;1.10;99.90;;;;;;5038956;28;20049;-74
2023/03/09 04:45:04;;;;;;;15.63;5.75;;;1.10;99.90;;;;;;5039652;28;20037;-74
2023/03/09 04:47:30;;;;;;;15.07;6.03;;;1.10;99.90;;;;;;5057018;28;20391;-74
2023/03/09 04:49:56;;;;;;;16.42;5.55;;;1.90;99.90;;;;;;5038897;28;20031;-74
2023/03/09 04:52:22;;;;;;;16.35;5.95;;;1.10;99.90;;;;;;5039334;28;20025;-74
2023/03/09 04:54:48;;;;;;;17.08;6.03;;;1.10;99.90;;;;;;5057119;28;20147;-74
2023/03/09 04:57:18;;;;;;;16.33;6.30;;;1.10;99.90;;;;;;5039933;28;20461;-74
2023/03/09 04:59:46;;;;;;;18.88;5.80;;;1.10;99.90;;;;;;5038855;28;20017;-74
2023/03/09 05:02:11;;;;;;;17.23;5.75;;;1.00;99.90;;;;;;5038697;28;20032;-74
2023/03/09 05:04:37;;;;;;;15.68;6.03;;;1.10;99.90;;;;;;5039336;28;20104;-74
2023/03/09 05:07:03;;;;;;;15.65;5.60;;;1.10;99.90;;;;;;5039067;28;20017;-74
2023/03/09 05:09:34;;;;;;;15.05;5.97;;;1.10;99.90;;;;;;5039360;28;20568;-75
2023/03/09 05:12:00;;;;;;;18.73;6.47;;;2.90;99.90;;;;;;5039150;28;20032;-75
2023/03/09 05:14:25;;;;;;;20.58;7.20;;;1.10;99.90;;;;;;5038754;28;20021;-75
2023/03/09 05:16:52;;;;;;;14.00;5.55;;;1.10;99.90;;;;;;5056549;28;20055;-75
2023/03/09 05:19:18;;;;;;;16.38;6.63;;;1.10;99.90;;;;;;5056558;28;20047;-75
2023/03/09 05:21:44;;;;;;;19.77;6.22;;;1.10;99.90;;;;;;5057582;28;20480;-75
2023/03/09 05:24:10;;;;;;;18.83;6.35;;;1.10;99.90;;;;;;5039168;28;20028;-75
2023/03/09 05:26:36;;;;;;;15.85;6.22;;;1.40;99.90;;;;;;5038170;28;20025;-75
2023/03/09 05:29:01;;;;;;;15.07;5.93;;;1.10;99.90;;;;;;5056160;28;20388;-75
2023/03/09 05:31:27;;;;;;;18.48;6.43;;;1.10;99.90;;;;;;5037975;28;20013;-75
2023/03/09 05:33:53;;;;;;;16.38;6.55;;;1.10;99.90;;;;;;5056856;28;20037;-75
2023/03/09 05:36:22;;;;;;;18.50;6.93;;;1.10;99.90;;;;;;5038726;28;20028;-75
2023/03/09 05:38:49;;;;;;;15.80;6.38;;;1.10;99.90;;;;;;5038105;28;20040;-75
2023/03/09 05:41:15;;;;;;;18.60;5.93;;;1.10;99.90;;;;;;5038780;28;20021;-75
2023/03/09 05:43:43;;;;;;;20.27;7.40;;;1.10;99.90;;;;;;5056080;28;20028;-76
2023/03/09 05:46:11;;;;;;;16.35;6.00;;;1.10;99.90;;;;;;5038476;28;20498;-75
2023/03/09 05:48:40;;;;;;;17.90;6.57;;;1.10;99.90;;;;;;5039125;28;20018;-75
2023/03/09 05:51:07;;;;;;;18.17;6.18;;;1.10;99.90;;;;;;5039095;28;20036;-75
2023/03/09 05:53:37;;;;;;;17.58;6.22;;;1.20;99.90;;;;;;5038082;28;20021;-75
2023/03/09 05:56:05;;;;;;;17.92;7.13;;;1.10;99.90;;;;;;5038149;28;20124;-75
2023/03/09 05:58:30;;;;;;;17.00;7.10;;;1.20;99.90;;;;;;5038268;28;20484;-75
2023/03/09 06:00:59;;;;;;;21.20;6.90;;;1.20;99.90;;;;;;5055461;28;20046;-75
2023/03/09 06:03:26;;;;;;;19.52;7.15;;;1.20;99.90;;;;;;5056147;28;20482;-75
2023/03/09 06:06:03;;;;;;;18.02;6.93;;;1.20;99.90;;;;;;5037720;28;20115;-76
2023/03/09 06:08:29;;;;;;;18.83;6.80;;;1.10;99.90;;;;;;5037967;28;20021;-75
2023/03/09 06:10:58;;;;;;;20.95;7.72;;;1.20;99.90;;;;;;5037486;28;20021;-75
2023/03/09 06:13:23;;;;;;;20.30;7.15;;;1.20;99.90;;;;;;5055438;28;20337;-75
2023/03/09 06:15:55;;;;;;;22.77;8.55;;;1.20;99.90;;;;;;5055166;28;20025;-75
2023/03/09 06:18:21;;;;;;;20.38;7.60;;;1.20;99.90;;;;;;5037319;28;20028;-76
2023/03/09 06:20:48;;;;;;;18.85;7.03;;;1.20;99.90;;;;;;5055033;28;20392;-76
2023/03/09 06:23:13;;;;;;;26.98;8.30;;;1.20;99.90;;;;;;5054557;28;20431;-76
2023/03/09 06:25:40;;;;;;;19.35;7.30;;;1.20;99.90;;;;;;5036641;28;20028;-76
2023/03/09 06:28:06;;;;;;;17.52;6.82;;;1.20;99.90;;;;;;5036567;28;20079;-76
2023/03/09 06:30:40;;;;;;;18.58;6.93;;;1.20;99.90;;;;;;5054376;28;20442;-76
2023/03/09 06:33:06;;;;;;;22.23;7.47;;;1.20;99.90;;;;;;5055579;28;20460;-77
2023/03/09 06:35:33;;;;;;;17.17;7.18;;;1.40;99.90;;;;;;5055147;28;20484;-77
2023/03/09 06:38:01;;;;;;;22.73;7.72;;;1.30;99.90;;;;;;5036943;28;20044;-77
2023/03/09 06:40:30;;;;;;;21.05;8.15;;;1.30;99.90;;;;;;5055342;28;20052;-77
2023/03/09 06:42:59;;;;;;;20.60;7.53;;;1.30;99.90;;;;;;5038059;28;20124;-77
2023/03/09 06:45:27;;;;;;;20.58;7.38;;;1.40;99.90;;;;;;5055195;28;20096;-77
2023/03/09 06:47:55;;;;;;;20.13;7.88;;;1.40;99.90;;;;;;5036763;28;20024;-76
2023/03/09 06:50:22;;;;;;;21.35;7.43;;;1.40;99.90;;;;;;5054271;28;20029;-76
2023/03/09 06:52:47;;;;;;;19.33;7.63;;;1.40;99.90;;;;;;5037116;28;20021;-76
2023/03/09 06:55:13;;;;;;;23.42;7.63;;;1.40;99.90;;;;;;5055657;28;20028;-76
2023/03/09 06:57:39;;;;;;;19.27;7.60;;;1.40;99.90;;;;;;5037046;28;20025;-76
2023/03/09 07:00:14;;;;;;;20.73;7.60;;;1.40;99.90;;;;;;5055429;28;20024;-77
2023/03/09 07:02:41;;;;;;;18.33;7.30;;;1.50;99.90;;;;;;5037153;28;20372;-76
2023/03/09 07:05:10;;;;;;;20.42;7.20;;;1.40;99.90;;;;;;5056078;28;20025;-76
2023/03/09 07:07:36;;;;;;;20.38;8.48;;;1.50;99.90;;;;;;5055901;28;20021;-75
2023/03/09 07:10:03;;;;;;;17.85;6.53;;;1.50;99.90;;;;;;5055076;28;20081;-75
2023/03/09 07:12:38;;;;;;;20.63;7.05;;;1.50;99.90;;;;;;5055732;28;20049;-76
2023/03/09 07:15:05;;;;;;;19.30;6.55;;;1.60;99.90;;;;;;5042651;28;20079;-75
2023/03/09 07:17:31;;;;;;;20.13;8.25;;;1.60;99.90;;;;;;5059888;28;20021;-76
2023/03/09 07:20:00;;;;;;;19.40;6.85;;;1.70;99.90;;;;;;5041515;28;20446;-75
2023/03/09 07:22:28;;;;;;;19.85;7.65;;;1.70;99.90;;;;;;5058923;28;20484;-75
2023/03/09 07:25:00;;;;;;;18.58;6.93;;;1.70;99.90;;;;;;5058599;28;20032;-75
2023/03/09 07:27:34;;;;;;;20.50;7.05;;;1.70;99.90;;;;;;5041738;28;20460;-75
2023/03/09 07:29:59;;;;;;;20.73;7.40;;;1.80;99.90;;;;;;5059530;28;20100;-75
2023/03/09 07:32:25;;;;;;;20.90;8.27;;;1.80;99.90;;;;;;5059469;28;20057;-75
2023/03/09 07:34:51;;;;;;;18.38;7.28;;;1.80;99.90;;;;;;5041115;28;20484;-75
2023/03/09 07:37:16;;;;;;;20.55;8.20;;;2.10;99.90;;;;;;5041141;28;20021;-76
2023/03/09 07:39:42;;;;;;;21.95;7.97;;;1.90;99.90;;;;;;5040312;28;20037;-75
2023/03/09 07:42:10;;;;;;;18.98;8.77;;;1.90;99.90;;;;;;5041277;28;20028;-75
2023/03/09 07:44:36;;;;;;;20.08;8.30;;;2.30;99.90;;;;;;5040518;28;20013;-75
2023/03/09 07:47:02;;;;;;;22.35;7.72;;;2.00;99.90;;;;;;5040914;28;20021;-75
2023/03/09 07:49:34;;;;;;;21.02;7.60;;;2.00;99.90;;;;;;5040695;28;20391;-75
2023/03/09 07:52:00;;;;;;;20.58;8.02;;;2.00;99.90;;;;;;5041217;28;20017;-75
2023/03/09 07:54:25;;;;;;;17.45;6.80;;;2.10;99.90;;;;;;5039430;28;20065;-75
2023/03/09 07:56:55;;;;;;;19.25;7.90;;;2.10;99.90;;;;;;5040752;28;20017;-77
2023/03/09 07:59:20;;;;;;;23.08;7.78;;;2.10;99.90;;;;;;5040854;28;20024;-76
2023/03/09 08:01:52;;;;;;;23.27;8.38;;;2.20;99.90;;;;;;5059179;28;20539;-76
2023/03/09 08:04:20;;;;;;;17.77;7.35;;;2.20;99.90;;;;;;5040064;28;20423;-75
2023/03/09 08:06:46;;;;;;;24.52;7.30;;;2.20;99.90;;;;;;5040649;28;20488;-76
2023/03/09 08:09:14;;;;;;;19.75;7.53;;;2.20;99.90;;;;;;5041002;28;20017;-76
2023/03/09 08:11:42;;;;;;;20.70;8.00;;;2.20;99.90;;;;;;5041038;28;20125;-76
2023/03/09 08:14:11;;;;;;;18.45;7.25;;;2.30;99.90;;;;;;5058130;28;20017;-76
2023/03/09 08:16:42;;;;;;;18.65;7.55;;;2.40;99.90;;;;;;5040197;28;20023;-76
2023/03/09 08:19:11;;;;;;;20.88;8.68;;;2.60;99.90;;;;;;5057747;28;20036;-76
2023/03/09 08:21:42;;;;;;;20.02;8.10;;;2.70;99.90;;;;;;5040529;28;20056;-76
2023/03/09 08:24:14;;;;;;;22.33;8.32;;;2.80;99.90;;;;;;5057570;28;20040;-76
2023/03/09 08:26:40;;;;;;;20.63;8.18;;;2.90;99.90;;;;;;5057887;28;20070;-76
2023/03/09 08:29:06;;;;;;;16.38;6.57;;;3.00;99.90;;;;;;5057844;28;20017;-75
2023/03/09 08:31:36;;;;;;;20.67;7.63;;;3.00;99.90;;;;;;5040356;28;20383;-75
2023/03/09 08:34:03;;;;;;;19.48;8.82;;;3.00;99.90;;;;;;5058007;28;20026;-76
2023/03/09 08:36:31;;;;;;;21.92;8.63;;;3.00;99.90;;;;;;5039651;28;20013;-75
2023/03/09 08:38:58;;;;;;;23.05;8.07;;;2.90;99.90;;;;;;5040394;28;20539;-75
2023/03/09 08:41:27;;;;;;;18.63;7.78;;;3.00;99.90;;;;;;5039789;28;20017;-75
2023/03/09 08:43:54;;;;;;;19.02;7.55;;;3.00;99.90;;;;;;5039511;28;20365;-75
2023/03/09 08:46:20;;;;;;;20.95;7.90;;;3.00;99.90;;;;;;5058032;28;20017;-75
2023/03/09 08:48:48;;;;;;;19.88;8.20;;;5.00;99.90;;;;;;5058143;28;20009;-76
2023/03/09 08:51:17;;;;;;;20.65;7.65;;;3.00;99.90;;;;;;5040268;28;20025;-76
2023/03/09 08:53:50;;;;;;;19.67;7.55;;;5.80;99.90;;;;;;5040516;28;20025;-76
2023/03/09 08:56:16;;;;;;;19.42;7.70;;;5.20;99.90;;;;;;5057669;28;20028;-76
2023/03/09 08:58:41;;;;;;;17.70;7.68;;;3.20;99.90;;;;;;5057609;28;20025;-76
2023/03/09 09:01:08;;;;;;;21.08;7.88;;;3.10;99.90;;;;;;5038984;28;20071;-76
2023/03/09 09:03:38;;;;;;;20.80;7.82;;;3.10;99.90;;;;;;5039382;28;20020;-76
2023/03/09 09:06:17;;;;;;;18.80;7.85;;;3.10;99.90;;;;;;5039233;28;20510;-76
2023/03/09 09:08:43;;;;;;;;;;;3.50;99.90;;;;;;5057332;28;20113;-76
2023/03/09 09:11:16;;;;;;;22.40;7.40;;;3.10;99.90;;;;;;5039404;28;19952;-76
2023/03/09 09:13:44;;;;;;;17.58;7.30;;;3.20;99.90;;;;;;5056706;28;20108;-76
2023/03/09 09:16:11;;;;;;;21.15;7.97;;;3.20;99.90;;;;;;5038977;28;20024;-76
2023/03/09 09:18:37;;;;;;;18.92;7.57;;;3.20;99.90;;;;;;5038642;28;20387;-76
2023/03/09 09:21:07;;;;;;;20.73;8.63;;;3.20;99.90;;;;;;5057609;28;20506;-76
2023/03/09 09:23:43;;;;;;;21.73;8.23;;;6.20;99.90;;;;;;5057771;28;20032;-76
2023/03/09 09:26:27;;;;;;;22.30;8.82;;;3.10;99.90;;;;;;5039283;28;20163;-76
2023/03/09 09:28:53;;;;;;;26.30;8.13;;;4.00;99.90;;;;;;5038932;28;20067;-76
2023/03/09 09:31:19;;;;;;;20.58;7.75;;;4.70;99.90;;;;;;5038490;28;20484;-76
2023/03/09 09:33:48;;;;;;;20.90;8.48;;;5.50;99.90;;;;;;5056485;28;20082;-76
2023/03/09 09:36:19;;;;;;;20.75;8.18;;;3.20;99.90;;;;;;5038517;28;20056;-76
2023/03/09 09:38:46;;;;;;;19.27;7.70;;;3.30;99.90;;;;;;5057307;28;20044;-76
2023/03/09 09:41:22;;;;;;;21.25;8.50;;;3.20;99.90;;;;;;5057239;28;20033;-76
2023/03/09 09:43:51;;;;;;;22.85;9.05;;;3.30;99.90;;;;;;5056091;28;20029;-76
2023/03/09 09:46:19;;;;;;;17.95;7.63;;;3.30;99.90;;;;;;5056835;28;20025;-76
2023/03/09 09:48:47;;;;;;;21.10;7.70;;;3.40;99.90;;;;;;5037861;28;20025;-76
2023/03/09 09:51:31;;;;;;;20.33;7.75;;;3.50;99.90;;;;;;5038176;28;20017;-76
2023/03/09 09:54:08;;;;;;;22.42;8.40;;;4.00;99.90;;;;;;5038538;28;20017;-76
2023/03/09 09:57:12;;;;;;;22.88;8.55;;;3.60;99.90;;;;;;5055826;28;20025;-76
2023/03/09 10:00:07;;;;;;;21.17;7.68;;;3.60;99.90;;;;;;5016612;28;20466;-76
2023/03/09 10:03:04;;;;;;;26.58;8.43;;;3.70;99.90;;;;;;5053682;28;20037;-76
2023/03/09 10:05:45;;;;;;;20.77;8.20;;;3.80;99.90;;;;;;5055896;28;20498;-76
2023/03/09 10:08:41;;;;;;;20.95;8.25;;;3.80;99.90;;;;;;5038546;28;20025;-76
2023/03/09 10:11:31;;;;;;;23.08;8.65;;;3.80;99.90;;;;;;5055966;28;20100;-76
2023/03/09 10:14:26;;;;;;;22.10;9.15;;;3.80;99.90;;;;;;5037981;28;20028;-75
2023/03/09 10:17:01;;;;;;;23.00;8.38;;;3.80;99.90;;;;;;5037662;28;20035;-76
2023/03/09 10:19:38;;;;;;;23.33;7.53;;;3.80;99.90;;;;;;5037471;28;20045;-76
2023/03/09 10:22:25;;;;;;;24.52;9.30;;;3.80;99.90;;;;;;5056304;28;20023;-76
2023/03/09 10:24:53;;;;;;;21.48;8.18;;;3.80;99.90;;;;;;5037160;28;20111;-76
2023/03/09 10:27:40;;;;;;;22.95;7.75;;;3.90;99.90;;;;;;5037802;28;20078;-76
2023/03/09 10:30:15;;;;;;;19.73;8.32;;;3.90;99.90;;;;;;5036892;28;20518;-76
2023/03/09 10:32:57;;;;;;;21.85;8.68;;;4.00;99.90;;;;;;5055231;28;20029;-75
2023/03/09 10:35:32;;;;;;;24.15;8.90;;;3.80;99.90;;;;;;5037260;28;20119;-75
2023/03/09 10:38:04;;;;;;;21.33;8.93;;;4.00;99.90;;;;;;5036668;28;20048;-75
2023/03/09 10:40:35;;;;;;;17.83;7.50;;;4.10;99.90;;;;;;5055427;28;20033;-75
2023/03/09 10:43:01;;;;;;;21.00;7.97;;;4.00;99.90;;;;;;5055247;28;20051;-75
2023/03/09 10:45:40;;;;;;;20.35;8.40;;;4.00;99.90;;;;;;5055779;28;20396;-76
2023/03/09 10:48:17;;;;;;;;;;;4.00;99.90;;;;;;5055575;28;20503;-76
2023/03/09 10:51:03;;;;;;;24.33;9.10;;;3.90;99.90;;;;;;5055303;28;20390;-76
2023/03/09 10:53:44;;;;;;;20.98;8.10;;;4.00;99.90;;;;;;5055983;28;20025;-76
2023/03/09 10:56:21;;;;;;;21.73;8.88;;;4.10;99.90;;;;;;5055358;28;20028;-76
2023/03/09 10:59:06;;;;;;;22.73;8.48;;;4.10;99.90;;;;;;5038674;28;20418;-76
2023/03/09 11:01:40;;;;;;;22.77;9.15;;;4.10;99.90;;;;;;5036554;28;20032;-76
2023/03/09 11:04:37;;;;;;;22.45;8.88;;;4.20;99.90;;;;;;5055035;28;20021;-76
2023/03/09 11:07:28;;;;;;;21.23;8.05;;;4.20;99.90;;;;;;5055127;28;20021;-76
2023/03/09 11:09:53;;;;;;;22.42;8.35;;;4.10;99.90;;;;;;5055019;28;20089;-76
2023/03/09 11:12:29;;;;;;;22.63;8.82;;;4.10;99.90;;;;;;5055079;28;20053;-76
2023/03/09 11:15:17;;;;;;;20.27;7.85;;;4.10;99.90;;;;;;5055769;28;20029;-76
2023/03/09 11:17:47;;;;;;;21.25;8.73;;;5.50;99.90;;;;;;5037936;28;20427;-76
2023/03/09 11:20:13;;;;;;;22.33;8.60;;;4.10;99.90;;;;;;5054407;28;20021;-76
2023/03/09 11:22:51;;;;;;;19.88;8.38;;;4.10;99.90;;;;;;5037485;28;20028;-76
2023/03/09 11:25:43;;;;;;;20.27;7.80;;;6.70;99.90;;;;;;5055162;28;20025;-76
2023/03/09 11:28:33;;;;;;;21.58;8.07;;;4.00;99.90;;;;;;5037377;28;20025;-76
2023/03/09 11:31:00;;;;;;;22.23;8.13;;;4.10;99.90;;;;;;5038107;28;20498;-76
2023/03/09 11:33:28;;;;;;;23.50;8.80;;;5.50;99.90;;;;;;5037005;28;20025;-76
2023/03/09 11:35:55;;;;;;;20.17;7.95;;;4.10;99.90;;;;;;5037092;28;20029;-76
2023/03/09 11:38:22;;;;;;;23.23;8.65;;;5.10;99.90;;;;;;5054779;28;20025;-76
2023/03/09 11:41:03;;;;;;;21.25;8.30;;;4.10;99.90;;;;;;5037214;28;20128;-76
2023/03/09 11:43:42;;;;;;;20.23;8.70;;;4.00;99.90;;;;;;5054529;28;20056;-76
2023/03/09 11:46:13;;;;;;;23.02;9.43;;;4.10;99.90;;;;;;5054016;28;20029;-76
2023/03/09 11:48:50;;;;;;;23.63;8.65;;;4.10;99.90;;;;;;5053904;28;20424;-75
2023/03/09 11:51:27;;;;;;;22.55;9.13;;;4.10;99.90;;;;;;5054311;28;20108;-75
2023/03/09 11:54:18;;;;;;;23.10;8.20;;;4.10;99.90;;;;;;5036908;28;20072;-75
2023/03/09 11:56:47;;;;;;;23.27;8.70;;;4.40;99.90;;;;;;5054751;28;20396;-75
2023/03/09 11:59:44;;;;;;;22.15;8.30;;;4.00;99.90;;;;;;5036496;28;20090;-75
2023/03/09 12:02:41;;;;;;;21.30;8.05;;;4.00;99.90;;;;;;5039846;28;20098;-75
2023/03/09 12:05:12;;;;;;;22.05;8.40;;;4.10;99.90;;;;;;5057686;28;20075;-75
2023/03/09 12:08:06;;;;;;;23.77;8.80;;;4.70;99.90;;;;;;5057159;28;20062;-75
2023/03/09 12:10:41;;;;;;;24.27;8.57;;;4.10;99.90;;;;;;5058223;28;20024;-75
2023/03/09 12:13:16;;;;;;;23.63;9.35;;;4.20;99.90;;;;;;5040484;28;20044;-75
2023/03/09 12:16:00;;;;;;;23.25;8.25;;;4.30;99.90;;;;;;5039213;28;20021;-75
2023/03/09 12:19:06;;;;;;;22.80;8.70;;;4.40;99.90;;;;;;5039494;28;20029;-75
2023/03/09 12:21:36;;;;;;;23.52;9.38;;;4.50;99.90;;;;;;5039006;28;20033;-76
2023/03/09 12:24:40;;;;;;;19.08;7.30;;;4.70;99.90;;;;;;5039750;28;20475;-75
2023/03/09 12:27:23;;;;;;;23.25;8.73;;;4.80;99.90;;;;;;5037492;28;20041;-75
2023/03/09 12:30:07;;;;;;;22.92;8.45;;;4.80;99.90;;;;;;5057293;28;20096;-75
2023/03/09 12:32:41;;;;;;;21.10;8.25;;;4.70;99.90;;;;;;5039793;28;20490;-77
2023/03/09 12:35:53;;;;;;;24.13;8.65;;;6.70;99.90;;;;;;5057613;28;20082;-77
2023/03/09 12:38:26;;;;;;;22.38;8.32;;;4.50;99.90;;;;;;5042543;28;20111;-77
2023/03/09 12:40:55;;;;;;;21.27;8.07;;;4.50;99.90;;;;;;5056729;28;20107;-75
2023/03/09 12:43:21;;;;;;;22.63;8.15;;;4.40;99.90;;;;;;5057281;28;20048;-75
2023/03/09 12:45:52;;;;;;;23.90;8.57;;;4.30;99.90;;;;;;5057939;28;20615;-75
2023/03/09 12:48:28;;;;;;;22.63;9.00;;;4.20;99.90;;;;;;5038809;28;20029;-75
2023/03/09 12:50:53;;;;;;;22.60;8.77;;;4.10;99.90;;;;;;5039395;28;20029;-75
2023/03/09 12:53:21;;;;;;;19.38;7.40;;;4.00;99.90;;;;;;5040088;28;20094;-75
2023/03/09 12:56:02;;;;;;;18.93;7.27;;;4.00;99.90;;;;;;5057900;28;20035;-75
2023/03/09 12:58:36;;;;;;;22.15;8.50;;;3.90;99.90;;;;;;5039793;28;20484;-76
2023/03/09 13:01:13;;;;;;;22.73;8.70;;;3.90;99.90;;;;;;5057476;28;20083;-76
2023/03/09 13:03:48;;;;;;;20.58;7.05;;;3.80;99.90;;;;;;5039389;28;20029;-76
2023/03/09 13:06:34;;;;;;;22.63;8.50;;;4.70;99.90;;;;;;5057532;28;20051;-76